Nearby METAR Reports

 

EGTE - Exeter Airport, United Kingdom
Distance from station: S 19km
Updated: 23/10/2018 15:20
Clear
Clear
 Wind from NW
Wind: NW 20 km/h
Temperature: 14°C
Dew Point: 8°C
Humidity: 67%
Barometer: 1032 hPa
Summary: Clear
Visibility: greater than 10 km
2018/10/23 14:20 EGTE 231420Z 31011KT CAVOK 14/08 Q1032
EGDY - Yeovilton (navy), United Kingdom
Distance from station: ENE 55km
Updated: 23/10/2018 14:50
Mostly cloudy
Mostly cloudy
 Wind from WNW
Wind: WNW 26 km/h
Temperature: 14°C
Dew Point: 9°C
Humidity: 72%
Barometer: 1032 hPa
Clouds: Mostly cloudy
Visibility: 10 km
Cloud details: Few Clouds 457 m
Mostly cloudy 5182 m
Mostly cloudy 7620 m
2018/10/23 13:50 EGDY 231350Z 30014KT 9999 FEW015 BKN170 BKN250 14/09 Q1032 BLU NOSIG
 
EGFF - Cardiff-Wales Ar, United Kingdom
Distance from station: N 56km
Updated: 23/10/2018 15:50
Clear
Clear
 Wind from W
Wind: W 20 km/h
Temperature: 14°C
Dew Point: 9°C
Humidity: 72%
Barometer: 1032 hPa
Clouds: Clear
Visibility: 10 km
2018/10/23 14:50 EGFF 231450Z AUTO 28011KT 9999 NCD 14/09 Q1032
EGDX - St Athan Raf, United Kingdom
Distance from station: N 58km
Updated: 23/10/2018 15:50
Clear
Clear
 Wind from W
Wind: W 22 km/h
Temperature: 14°C
Dew Point: 9°C
Humidity: 72%
Barometer: 1032 hPa
Summary: Clear
Visibility: greater than 10 km
2018/10/23 14:50 EGDX 231450Z 28012KT CAVOK 14/09 Q1032 BLU
 
EGGD - Bristol/Lulsgate, United Kingdom
Distance from station: NE 71km
Updated: 23/10/2018 15:50
Clear
Clear
 Wind from WSW
Wind: WSW 17 km/h
Temperature: 13°C
Dew Point: 11°C
Humidity: 88%
Barometer: 1032 hPa
Clouds: Clear
Visibility: 10 km
2018/10/23 14:50 EGGD 231450Z AUTO 25009KT 9999 NCD 13/11 Q1032